Time;durP1;ratioP1;P1;durP2;ratioP2;P2;SDS_P1;SDS_P2;PMS_P1;PMS_P2;Temp;Humidity;BMP_temperature;BMP_pressure;BME280_temperature;BME280_humidity;BME280_pressure;Samples;Min_cycle;Max_cycle;Signal;HPM_P1;HPM_P2
2023/10/10 00:00:57;;;;;;;30.38;10.23;;;19.70;93.70;;;;;;5085047;28;20031;-51
2023/10/10 00:03:24;;;;;;;36.65;10.27;;;19.70;93.70;;;;;;5087008;28;20074;-51
2023/10/10 00:05:57;;;;;;;26.40;8.98;;;19.60;93.70;;;;;;5087003;28;20035;-51
2023/10/10 00:08:29;;;;;;;33.17;8.55;;;19.60;93.80;;;;;;5086626;28;20520;-51
2023/10/10 00:10:55;;;;;;;30.83;9.35;;;19.60;93.80;;;;;;5101339;28;20039;-51
2023/10/10 00:13:23;;;;;;;28.63;9.25;;;19.60;93.80;;;;;;5102283;28;20036;-51
2023/10/10 00:15:51;;;;;;;37.42;9.00;;;19.60;93.80;;;;;;5101989;28;20054;-51
2023/10/10 00:18:21;;;;;;;29.73;8.55;;;19.50;93.80;;;;;;5085204;28;20070;-51
2023/10/10 00:21:04;;;;;;;26.48;8.38;;;19.50;93.80;;;;;;5102295;28;20021;-51
2023/10/10 00:23:33;;;;;;;23.58;7.68;;;19.50;93.80;;;;;;5100018;28;20045;-52
2023/10/10 00:25:59;;;;;;;24.88;8.77;;;19.50;93.90;;;;;;5101698;28;20104;-51
2023/10/10 00:28:27;;;;;;;19.38;7.63;;;19.50;93.80;;;;;;5086207;28;20051;-51
2023/10/10 00:30:53;;;;;;;25.77;8.20;;;19.40;93.80;;;;;;5068268;28;20024;-51
2023/10/10 00:33:19;;;;;;;32.72;8.48;;;19.40;93.80;;;;;;5085024;28;20033;-51
2023/10/10 00:35:47;;;;;;;28.90;8.90;;;19.40;93.80;;;;;;5086442;28;20437;-51
2023/10/10 00:38:23;;;;;;;24.65;8.32;;;19.40;93.80;;;;;;5084963;28;20078;-52
2023/10/10 00:40:49;;;;;;;30.35;8.05;;;19.30;93.80;;;;;;5086465;28;20032;-51
2023/10/10 00:43:22;;;;;;;18.15;6.88;;;19.30;93.90;;;;;;5101664;28;20072;-51
2023/10/10 00:45:53;;;;;;;23.80;8.13;;;19.30;93.90;;;;;;5068126;28;20028;-50
2023/10/10 00:48:22;;;;;;;22.13;7.80;;;19.30;93.90;;;;;;5086199;28;20077;-51
2023/10/10 00:50:52;;;;;;;23.38;8.15;;;19.30;93.90;;;;;;5101791;28;20058;-51
2023/10/10 00:53:21;;;;;;;22.25;7.28;;;19.30;93.90;;;;;;5101811;28;20029;-51
2023/10/10 00:55:55;;;;;;;25.83;7.32;;;19.30;93.90;;;;;;5084815;28;20480;-51
2023/10/10 00:58:22;;;;;;;22.25;8.35;;;19.30;93.90;;;;;;5084854;28;20096;-51
2023/10/10 01:00:52;;;;;;;20.92;8.13;;;19.20;93.90;;;;;;5067787;28;20048;-51
2023/10/10 01:03:21;;;;;;;24.35;7.88;;;19.20;93.90;;;;;;5101288;28;20090;-51
2023/10/10 01:05:52;;;;;;;29.30;8.35;;;19.20;93.90;;;;;;5068022;28;20027;-51
2023/10/10 01:08:19;;;;;;;16.75;6.97;;;19.10;93.90;;;;;;5084739;28;20029;-51
2023/10/10 01:10:56;;;;;;;20.10;7.38;;;19.10;93.90;;;;;;5101519;28;20036;-51
2023/10/10 01:13:21;;;;;;;20.92;7.80;;;19.10;93.90;;;;;;5085937;28;20058;-51
2023/10/10 01:15:47;;;;;;;22.88;7.47;;;19.10;93.90;;;;;;5068044;28;20088;-51
2023/10/10 01:18:15;;;;;;;22.02;7.78;;;19.10;93.90;;;;;;5085892;28;20036;-51
2023/10/10 01:20:46;;;;;;;24.85;8.00;;;19.10;93.90;;;;;;5101178;28;20028;-51
2023/10/10 01:23:14;;;;;;;27.15;8.13;;;19.00;93.90;;;;;;5084727;28;20038;-51
2023/10/10 01:25:41;;;;;;;18.15;7.72;;;19.00;94.00;;;;;;5101270;28;20028;-51
2023/10/10 01:28:15;;;;;;;24.45;8.07;;;19.00;94.00;;;;;;5085663;28;20071;-51
2023/10/10 01:30:56;;;;;;;17.42;7.05;;;19.00;94.00;;;;;;5084608;28;20048;-51
2023/10/10 01:33:25;;;;;;;20.80;7.85;;;19.00;94.00;;;;;;5099465;28;20032;-51
2023/10/10 01:35:52;;;;;;;19.75;8.20;;;19.00;94.00;;;;;;5100991;28;20029;-51
2023/10/10 01:38:27;;;;;;;26.95;8.15;;;18.90;94.30;;;;;;5085738;28;20084;-51
2023/10/10 01:40:57;;;;;;;25.83;8.38;;;18.90;94.00;;;;;;5085799;28;20578;-51
2023/10/10 01:43:24;;;;;;;15.98;7.95;;;18.90;94.40;;;;;;5085792;28;20052;-51
2023/10/10 01:46:08;;;;;;;23.48;7.53;;;18.90;94.10;;;;;;5085743;28;20036;-51
2023/10/10 01:48:43;;;;;;;23.30;7.25;;;18.90;94.20;;;;;;5085670;28;20059;-51
2023/10/10 01:51:08;;;;;;;20.05;7.85;;;18.80;94.20;;;;;;5082863;28;20463;-51
2023/10/10 01:53:40;;;;;;;24.00;8.05;;;18.80;94.20;;;;;;5085490;28;20021;-51
2023/10/10 01:56:11;;;;;;;17.52;7.93;;;18.80;94.20;;;;;;5087620;28;20033;-51
2023/10/10 01:58:37;;;;;;;20.58;7.53;;;18.80;94.20;;;;;;5104519;28;20096;-51
2023/10/10 02:01:19;;;;;;;18.80;7.10;;;18.80;94.20;;;;;;5089211;28;20392;-52
2023/10/10 02:03:46;;;;;;;18.70;7.40;;;18.80;94.20;;;;;;5104457;28;20036;-51
2023/10/10 02:06:24;;;;;;;19.13;7.13;;;18.70;94.20;;;;;;5104588;28;20020;-51
2023/10/10 02:08:51;;;;;;;14.57;6.40;;;18.70;94.20;;;;;;5103538;28;20036;-51
2023/10/10 02:11:20;;;;;;;17.92;7.60;;;18.70;94.30;;;;;;5089034;28;20028;-51
2023/10/10 02:13:50;;;;;;;23.90;7.15;;;18.70;94.30;;;;;;5070745;28;20084;-51
2023/10/10 02:16:17;;;;;;;16.58;6.65;;;18.60;94.30;;;;;;5088948;28;20512;-51
2023/10/10 02:18:51;;;;;;;17.33;7.40;;;18.60;94.30;;;;;;5087220;28;20024;-52
2023/10/10 02:21:17;;;;;;;20.20;7.40;;;18.70;94.30;;;;;;5088937;28;20033;-51
2023/10/10 02:23:46;;;;;;;20.05;7.53;;;18.60;94.30;;;;;;5088887;28;20102;-51
2023/10/10 02:26:23;;;;;;;16.20;7.38;;;18.60;94.30;;;;;;5104400;28;20024;-51
2023/10/10 02:29:16;;;;;;;20.20;7.00;;;18.60;94.30;;;;;;5088675;28;20036;-51
2023/10/10 02:31:41;;;;;;;16.48;7.13;;;18.60;94.40;;;;;;5101627;28;20050;-51
2023/10/10 02:34:10;;;;;;;15.32;6.82;;;18.60;94.40;;;;;;5103982;28;20036;-51
2023/10/10 02:36:35;;;;;;;12.68;6.25;;;18.50;94.40;;;;;;5088658;28;20076;-51
2023/10/10 02:41:49;;;;;;;14.90;7.43;;;18.50;94.30;;;;;;5102487;28;20047;-51
2023/10/10 02:44:26;;;;;;;14.27;6.88;;;18.50;94.30;;;;;;5103229;28;20047;-51
2023/10/10 02:46:54;;;;;;;17.98;7.40;;;18.50;94.40;;;;;;5088548;28;20035;-51
2023/10/10 02:49:23;;;;;;;14.80;7.15;;;18.50;94.40;;;;;;5103951;28;20048;-51
2023/10/10 02:51:49;;;;;;;15.98;7.55;;;18.50;94.40;;;;;;5086548;28;20035;-51
2023/10/10 02:54:34;;;;;;;17.45;6.70;;;18.50;94.50;;;;;;5088257;28;20452;-51
2023/10/10 02:59:52;;;;;;;16.05;7.40;;;18.40;94.40;;;;;;5088406;28;20051;-51
2023/10/10 03:02:19;;;;;;;19.77;7.35;;;18.40;94.40;;;;;;5103399;28;20024;-51
2023/10/10 03:07:29;;;;;;;20.13;7.05;;;18.40;94.40;;;;;;5086957;28;20456;-51
2023/10/10 03:12:49;;;;;;;14.73;6.38;;;18.30;94.40;;;;;;5087994;28;20523;-51
2023/10/10 03:26:05;;;;;;;15.30;7.47;;;18.20;94.50;;;;;;5086628;28;20028;-51
2023/10/10 03:28:34;;;;;;;16.35;7.53;;;18.20;94.80;;;;;;5083922;28;20036;-51
2023/10/10 03:31:20;;;;;;;13.18;6.80;;;18.20;94.50;;;;;;5069116;28;20047;-51
2023/10/10 03:34:03;;;;;;;14.70;7.18;;;18.20;94.50;;;;;;5100384;28;20419;-51
2023/10/10 03:36:41;;;;;;;19.02;7.07;;;18.10;94.50;;;;;;5087503;28;20032;-51
2023/10/10 03:39:25;;;;;;;12.68;7.15;;;18.10;94.50;;;;;;5087342;28;20032;-51
2023/10/10 05:25:53;;;;;;;9.70;5.78;;;17.50;95.10;;;;;;5066052;28;20075;-51
2023/10/10 05:28:19;;;;;;;13.02;6.00;;;17.50;95.10;;;;;;5065659;28;20045;-51
2023/10/10 05:30:45;;;;;;;14.02;6.07;;;17.40;95.10;;;;;;5049854;28;20039;-51
2023/10/10 05:33:12;;;;;;;14.43;5.95;;;17.40;95.10;;;;;;5064267;28;20041;-51
2023/10/10 05:35:40;;;;;;;14.38;5.75;;;17.40;95.10;;;;;;5069003;28;20021;-51
2023/10/10 05:38:09;;;;;;;13.77;5.25;;;17.40;95.10;;;;;;5084323;28;20089;-51
2023/10/10 05:40:34;;;;;;;13.40;5.55;;;17.40;95.20;;;;;;5060519;28;20025;-51
2023/10/10 05:43:02;;;;;;;12.75;6.45;;;17.40;95.20;;;;;;5065390;28;20039;-51
2023/10/10 05:45:31;;;;;;;13.00;5.15;;;17.40;95.10;;;;;;5065307;28;20059;-51
2023/10/10 05:47:56;;;;;;;15.13;5.43;;;17.40;95.10;;;;;;5067516;28;20050;-51
2023/10/10 05:50:22;;;;;;;13.85;5.50;;;17.40;95.10;;;;;;5051900;28;20040;-51
2023/10/10 05:52:48;;;;;;;10.98;5.03;;;17.40;95.10;;;;;;5051393;28;20021;-51
2023/10/10 05:55:14;;;;;;;14.02;5.95;;;17.40;95.10;;;;;;5059507;28;20032;-51
2023/10/10 05:57:40;;;;;;;12.77;5.57;;;17.40;95.20;;;;;;5069235;28;20052;-51
2023/10/10 06:00:16;;;;;;;13.35;5.60;;;17.40;95.20;;;;;;5051325;28;20029;-51
2023/10/10 06:02:42;;;;;;;;;;;17.40;95.20;;;;;;5052771;28;20430;-51
2023/10/10 06:05:08;;;;;;;;;;;17.40;95.20;;;;;;5051498;28;19947;-51
2023/10/10 06:07:37;;;;;;;14.38;5.22;;;17.40;95.20;;;;;;5074022;28;19908;-51
2023/10/10 06:10:06;;;;;;;13.88;5.20;;;17.30;95.30;;;;;;5069893;28;20032;-51
2023/10/10 06:12:36;;;;;;;10.43;4.75;;;17.30;95.40;;;;;;5051413;28;20033;-51
2023/10/10 06:15:05;;;;;;;16.15;5.70;;;17.20;95.50;;;;;;5067749;28;20535;-51
2023/10/10 06:17:33;;;;;;;15.60;5.65;;;17.20;95.60;;;;;;5050857;28;20532;-51
2023/10/10 06:20:00;;;;;;;13.93;5.30;;;17.20;95.70;;;;;;5050236;28;20029;-51
2023/10/10 06:22:29;;;;;;;12.75;5.22;;;17.10;95.80;;;;;;5068393;28;20029;-51
2023/10/10 06:24:57;;;;;;;16.42;6.18;;;17.10;95.90;;;;;;5050889;28;20049;-51
2023/10/10 06:27:29;;;;;;;15.25;5.18;;;17.10;95.90;;;;;;5067361;28;20033;-51
2023/10/10 06:29:58;;;;;;;12.77;4.93;;;17.10;96.00;;;;;;5067968;28;20025;-51
2023/10/10 06:32:30;;;;;;;15.30;5.32;;;17.00;96.00;;;;;;5050783;28;20045;-51
2023/10/10 06:37:41;;;;;;;29.52;6.28;;;17.00;96.10;;;;;;5067337;28;20043;-51
2023/10/10 06:40:08;;;;;;;13.68;5.88;;;17.00;96.20;;;;;;5049528;28;20033;-50
2023/10/10 06:42:35;;;;;;;19.35;6.00;;;17.00;96.30;;;;;;5082651;28;20037;-51
2023/10/10 06:45:11;;;;;;;13.95;5.95;;;17.10;96.30;;;;;;5050121;28;20025;-51
2023/10/10 06:47:43;;;;;;;18.67;5.90;;;17.00;96.20;;;;;;5067335;28;20033;-51
2023/10/10 06:50:10;;;;;;;26.27;6.55;;;17.10;96.30;;;;;;5067046;28;20032;-51
2023/10/10 06:52:36;;;;;;;15.43;5.72;;;17.10;96.30;;;;;;5050350;28;20029;-51
2023/10/10 06:55:10;;;;;;;12.32;5.30;;;17.10;96.30;;;;;;5060476;28;20031;-51
2023/10/10 06:57:37;;;;;;;19.92;6.07;;;17.10;96.30;;;;;;5053543;28;20035;-51
2023/10/10 07:00:27;;;;;;;18.88;6.43;;;17.10;96.40;;;;;;5067213;28;20021;-51
2023/10/10 07:02:54;;;;;;;20.80;6.53;;;17.10;96.40;;;;;;5076534;28;20101;-51
2023/10/10 07:05:20;;;;;;;20.67;6.40;;;17.20;96.40;;;;;;5031238;28;20025;-51
2023/10/10 07:08:12;;;;;;;19.88;6.55;;;17.10;96.40;;;;;;5066170;28;20075;-51
2023/10/10 07:10:37;;;;;;;22.33;6.28;;;17.10;96.40;;;;;;5052630;28;20031;-51
2023/10/10 07:13:03;;;;;;;17.52;6.75;;;17.10;96.50;;;;;;5049188;28;20465;-51
2023/10/10 07:15:35;;;;;;;26.30;6.93;;;17.10;96.50;;;;;;5079873;28;20041;-51
2023/10/10 07:18:22;;;;;;;23.52;7.03;;;17.10;96.60;;;;;;5064218;28;20056;-51
2023/10/10 07:24:13;;;;;;;31.55;6.93;;;17.20;96.70;;;;;;5019437;28;20037;-51
2023/10/10 07:26:42;;;;;;;27.65;7.18;;;17.20;96.70;;;;;;5066165;28;20025;-51
2023/10/10 07:29:27;;;;;;;20.65;6.53;;;17.20;96.90;;;;;;5054031;28;20032;-51
2023/10/10 07:32:04;;;;;;;31.85;7.80;;;17.20;96.90;;;;;;5051962;28;20546;-51
2023/10/10 07:34:41;;;;;;;33.83;7.80;;;17.20;97.00;;;;;;5067368;28;20048;-51
2023/10/10 07:37:09;;;;;;;24.23;7.45;;;17.20;97.20;;;;;;5066573;28;20077;-51
2023/10/10 07:42:27;;;;;;;26.85;7.75;;;17.20;97.10;;;;;;5067100;28;20046;-51
2023/10/10 07:44:55;;;;;;;30.33;7.70;;;17.20;97.10;;;;;;5067161;28;20021;-51
2023/10/10 07:47:32;;;;;;;33.25;7.65;;;17.20;97.20;;;;;;5060422;28;20043;-51
2023/10/10 07:50:08;;;;;;;38.50;8.02;;;17.20;97.20;;;;;;5060714;28;20049;-51
2023/10/10 07:52:35;;;;;;;24.33;7.90;;;17.20;97.20;;;;;;5060532;28;20053;-51
2023/10/10 07:55:04;;;;;;;27.10;7.80;;;17.30;97.30;;;;;;5064700;28;20033;-51
2023/10/10 07:57:46;;;;;;;34.58;8.32;;;17.30;97.20;;;;;;5046776;28;20049;-51
2023/10/10 08:00:17;;;;;;;34.17;9.38;;;17.30;97.50;;;;;;5046860;28;20059;-51
2023/10/10 08:02:49;;;;;;;40.20;9.20;;;17.30;97.60;;;;;;5046213;28;20036;-53
2023/10/10 08:05:19;;;;;;;46.35;9.15;;;17.30;97.60;;;;;;5063596;28;20453;-51
2023/10/10 08:07:45;;;;;;;50.00;9.20;;;17.40;97.60;;;;;;5046074;28;20139;-51
2023/10/10 08:10:14;;;;;;;37.72;9.75;;;17.40;97.70;;;;;;5065217;28;20116;-51
2023/10/10 08:12:40;;;;;;;75.88;10.77;;;17.50;97.70;;;;;;5072890;28;20040;-51
2023/10/10 08:15:24;;;;;;;48.28;9.88;;;17.50;97.60;;;;;;5068494;28;20040;-51
2023/10/10 08:17:54;;;;;;;57.08;10.05;;;17.40;97.50;;;;;;5051416;28;20032;-51
2023/10/10 08:22:59;;;;;;;43.03;9.43;;;17.50;97.70;;;;;;5064017;28;20393;-51
2023/10/10 08:25:25;;;;;;;44.47;10.52;;;17.50;97.90;;;;;;5073876;28;20024;-52
2023/10/10 08:27:50;;;;;;;43.08;9.80;;;17.50;97.70;;;;;;5052726;28;20037;-51
2023/10/10 08:30:16;;;;;;;62.38;10.82;;;17.50;97.70;;;;;;5058528;28;20108;-51
2023/10/10 08:32:43;;;;;;;49.72;10.63;;;17.60;97.80;;;;;;5081448;28;20025;-52
2023/10/10 08:35:10;;;;;;;43.15;9.38;;;17.60;97.80;;;;;;5047673;28;20016;-51
2023/10/10 08:37:36;;;;;;;57.25;11.10;;;17.60;97.80;;;;;;5033990;28;20028;-51
2023/10/10 08:40:15;;;;;;;53.78;11.07;;;17.70;97.80;;;;;;5067091;28;20042;-51
2023/10/10 08:42:43;;;;;;;51.63;10.43;;;17.70;97.80;;;;;;5066091;28;20560;-52
2023/10/10 08:45:22;;;;;;;51.33;10.65;;;17.80;97.90;;;;;;5063078;28;20029;-53
2023/10/10 08:47:49;;;;;;;42.92;10.90;;;17.70;97.80;;;;;;5045836;28;20035;-53
2023/10/10 08:50:16;;;;;;;63.10;10.95;;;17.70;97.80;;;;;;5080094;28;20510;-53
2023/10/10 08:52:41;;;;;;;57.28;11.55;;;17.80;97.90;;;;;;5048198;28;20033;-53
2023/10/10 08:55:10;;;;;;;59.00;11.15;;;17.80;97.90;;;;;;5054163;28;20033;-53
2023/10/10 08:57:38;;;;;;;63.20;11.73;;;17.80;97.80;;;;;;5043256;28;20032;-53
2023/10/10 09:00:06;;;;;;;71.03;12.65;;;17.80;97.80;;;;;;5064379;28;20051;-53
2023/10/10 09:02:33;;;;;;;65.95;12.32;;;17.90;97.80;;;;;;5057049;28;20025;-53
2023/10/10 09:04:58;;;;;;;75.20;11.30;;;17.90;97.80;;;;;;5052680;28;20035;-52
2023/10/10 09:07:27;;;;;;;72.20;12.25;;;17.90;97.70;;;;;;5066302;28;20092;-53
2023/10/10 09:10:05;;;;;;;67.07;12.02;;;18.00;97.60;;;;;;5085101;28;20024;-53
2023/10/10 09:12:50;;;;;;;77.88;14.00;;;18.00;97.60;;;;;;5068093;28;20028;-51
2023/10/10 09:15:16;;;;;;;70.80;13.27;;;18.00;97.60;;;;;;5047787;28;20028;-51
2023/10/10 09:17:42;;;;;;;72.80;12.93;;;18.00;97.50;;;;;;5063464;28;20068;-52
2023/10/10 09:20:17;;;;;;;75.47;13.32;;;18.10;97.50;;;;;;5069988;28;20025;-53
2023/10/10 09:22:44;;;;;;;90.10;15.55;;;18.10;97.50;;;;;;5061512;28;20116;-51
2023/10/10 09:25:19;;;;;;;88.35;15.32;;;18.10;97.60;;;;;;5067345;28;20029;-51
2023/10/10 09:27:58;;;;;;;87.18;13.15;;;18.20;97.70;;;;;;5062882;28;20038;-51
2023/10/10 09:30:31;;;;;;;82.70;13.32;;;18.20;97.50;;;;;;5059324;28;20090;-51
2023/10/10 09:33:12;;;;;;;103.63;15.13;;;18.20;97.50;;;;;;5063387;28;20048;-50
2023/10/10 09:35:45;;;;;;;90.63;13.35;;;18.30;97.70;;;;;;5066293;28;20037;-51
2023/10/10 09:38:14;;;;;;;80.55;14.18;;;18.30;97.50;;;;;;5062989;28;20049;-51
2023/10/10 09:40:40;;;;;;;82.25;14.02;;;18.30;97.50;;;;;;5024150;28;20416;-53
2023/10/10 09:43:12;;;;;;;74.70;13.40;;;18.40;97.60;;;;;;5062293;28;20050;-53
2023/10/10 09:45:58;;;;;;;71.85;13.68;;;18.40;97.50;;;;;;5044985;28;20104;-53
2023/10/10 09:51:16;;;;;;;77.80;13.93;;;18.50;97.40;;;;;;5021469;28;20140;-53
2023/10/10 09:53:46;;;;;;;73.32;13.60;;;18.50;97.40;;;;;;5029836;28;20053;-52
2023/10/10 09:56:14;;;;;;;80.50;13.05;;;18.50;97.30;;;;;;5062684;28;20500;-53
2023/10/10 09:58:42;;;;;;;80.63;13.35;;;18.60;97.20;;;;;;5065623;28;20082;-53
2023/10/10 10:01:22;;;;;;;94.35;13.60;;;18.60;97.10;;;;;;5063877;28;20041;-53
2023/10/10 10:04:00;;;;;;;69.63;12.13;;;18.70;97.00;;;;;;5045300;28;20025;-51
2023/10/10 10:06:54;;;;;;;74.43;13.25;;;18.70;96.80;;;;;;5076481;28;20057;-51
2023/10/10 10:09:37;;;;;;;52.90;11.77;;;18.70;96.50;;;;;;5065884;28;20407;-51
2023/10/10 10:12:41;;;;;;;53.05;11.70;;;18.80;96.30;;;;;;5043388;28;20025;-53
2023/10/10 10:15:48;;;;;;;70.47;12.50;;;18.80;96.20;;;;;;5062010;28;20037;-53
2023/10/10 10:18:26;;;;;;;73.57;12.90;;;18.90;96.00;;;;;;5064611;28;20112;-53
2023/10/10 10:21:30;;;;;;;65.05;11.10;;;19.00;95.80;;;;;;5031520;28;20030;-53
2023/10/10 10:23:48;;;;;;;58.33;11.07;;;19.00;95.60;;;;;;5064901;28;20029;-53
2023/10/10 10:26:32;;;;;;;64.63;11.32;;;19.00;95.50;;;;;;5066433;28;20025;-53
2023/10/10 10:29:00;;;;;;;53.83;11.38;;;19.00;95.50;;;;;;5050365;28;20105;-53
2023/10/10 10:31:32;;;;;;;60.80;11.15;;;19.10;95.50;;;;;;5067263;28;20481;-53
2023/10/10 10:34:07;;;;;;;47.17;11.07;;;19.10;95.40;;;;;;5050674;28;20053;-53
2023/10/10 10:36:50;;;;;;;62.30;10.65;;;19.10;95.30;;;;;;5062115;28;20025;-53
2023/10/10 10:39:23;;;;;;;60.50;12.00;;;19.20;95.20;;;;;;5047175;28;20044;-53
2023/10/10 10:41:53;;;;;;;62.08;11.80;;;19.20;95.10;;;;;;5053676;28;20032;-53
2023/10/10 10:44:43;;;;;;;46.45;10.85;;;19.20;95.00;;;;;;5064732;28;20059;-53
2023/10/10 10:47:11;;;;;;;55.72;10.50;;;19.30;95.00;;;;;;5052573;28;20036;-52
2023/10/10 10:49:40;;;;;;;55.08;11.70;;;19.30;94.80;;;;;;5067209;28;20031;-53
2023/10/10 10:52:17;;;;;;;52.05;11.27;;;19.40;94.70;;;;;;5066967;28;20035;-53
2023/10/10 10:54:48;;;;;;;69.40;11.90;;;19.40;94.50;;;;;;5063717;28;20132;-53
2023/10/10 10:57:27;;;;;;;52.45;10.80;;;19.40;94.40;;;;;;5050418;28;20053;-53
2023/10/10 10:59:55;;;;;;;55.70;11.00;;;19.40;94.30;;;;;;5066831;28;20028;-53
2023/10/10 11:02:30;;;;;;;53.83;11.73;;;19.50;94.20;;;;;;5045427;28;20040;-51
2023/10/10 11:04:56;;;;;;;;;;;19.50;94.10;;;;;;5068473;28;20020;-53
2023/10/10 11:07:28;;;;;;;;;;;19.50;94.00;;;;;;5062255;28;19913;-52
2023/10/10 11:09:54;;;;;;;52.30;9.82;;;19.50;93.90;;;;;;5066532;28;19936;-53
2023/10/10 11:12:31;;;;;;;68.47;11.40;;;19.60;93.90;;;;;;5056123;28;20044;-53
2023/10/10 11:14:58;;;;;;;55.85;10.63;;;19.60;93.90;;;;;;5031044;28;20021;-53
2023/10/10 11:17:24;;;;;;;55.70;10.30;;;19.70;93.80;;;;;;5024041;28;20044;-53
2023/10/10 11:19:55;;;;;;;56.25;11.30;;;19.70;93.70;;;;;;5081678;28;20031;-53
2023/10/10 11:22:39;;;;;;;82.28;12.70;;;19.80;93.60;;;;;;5066160;28;20217;-50
2023/10/10 11:25:05;;;;;;;60.85;11.27;;;19.80;93.50;;;;;;5061319;28;20025;-53
2023/10/10 11:27:43;;;;;;;85.80;12.80;;;19.80;93.40;;;;;;5055649;28;20029;-53
2023/10/10 11:30:12;;;;;;;54.22;11.52;;;19.90;93.40;;;;;;5062454;28;20029;-53
2023/10/10 11:32:45;;;;;;;59.17;11.00;;;19.90;93.30;;;;;;5061408;28;20033;-53
2023/10/10 11:35:17;;;;;;;65.22;11.32;;;20.00;93.20;;;;;;5077853;28;20045;-53
2023/10/10 11:37:59;;;;;;;63.42;11.13;;;20.00;93.00;;;;;;5027518;28;20033;-53
2023/10/10 11:43:11;;;;;;;98.35;13.07;;;20.10;92.70;;;;;;5045836;28;20021;-53
2023/10/10 11:45:40;;;;;;;58.70;11.82;;;20.10;92.50;;;;;;5060956;28;20070;-53
2023/10/10 11:48:13;;;;;;;49.03;11.07;;;20.20;92.50;;;;;;5045298;28;20033;-53
2023/10/10 11:50:49;;;;;;;70.53;11.70;;;20.20;92.30;;;;;;5061914;28;20029;-53
2023/10/10 11:53:27;;;;;;;51.35;10.48;;;20.30;92.20;;;;;;5058241;28;20029;-51
2023/10/10 11:55:54;;;;;;;46.85;10.25;;;20.30;92.10;;;;;;5056599;28;20036;-53
2023/10/10 11:58:20;;;;;;;47.53;10.77;;;20.30;91.90;;;;;;5043081;28;20069;-53
2023/10/10 12:00:59;;;;;;;57.50;9.65;;;20.40;91.80;;;;;;5061038;28;20085;-53
2023/10/10 12:06:14;;;;;;;47.40;9.23;;;20.50;91.30;;;;;;5062643;28;20063;-51
2023/10/10 12:08:48;;;;;;;43.35;10.00;;;20.50;91.30;;;;;;5077477;28;20096;-51
2023/10/10 12:11:19;;;;;;;44.08;8.77;;;20.50;91.10;;;;;;5081865;28;20037;-51
2023/10/10 12:13:45;;;;;;;45.97;9.52;;;20.60;91.00;;;;;;5079742;28;20045;-50
2023/10/10 12:16:11;;;;;;;40.55;9.00;;;20.60;90.70;;;;;;5078354;28;20037;-51
2023/10/10 12:18:44;;;;;;;45.10;9.35;;;20.70;90.60;;;;;;5079580;28;20078;-51
2023/10/10 12:21:20;;;;;;;44.22;9.43;;;20.70;90.50;;;;;;5071030;28;20052;-51
2023/10/10 12:23:47;;;;;;;49.22;8.52;;;20.70;90.30;;;;;;5075605;28;20173;-53
2023/10/10 12:26:13;;;;;;;45.10;9.00;;;20.80;90.20;;;;;;5091209;28;20029;-53
2023/10/10 12:28:38;;;;;;;39.33;8.70;;;20.80;90.10;;;;;;5047961;28;20110;-54
2023/10/10 12:31:15;;;;;;;53.53;10.07;;;20.80;90.00;;;;;;5064808;28;20037;-53
2023/10/10 12:33:53;;;;;;;37.35;8.32;;;20.90;89.60;;;;;;5049410;28;20389;-51
2023/10/10 12:36:22;;;;;;;43.53;8.93;;;20.90;89.40;;;;;;5064138;28;20473;-51
2023/10/10 12:38:48;;;;;;;31.30;7.72;;;20.90;89.20;;;;;;5063846;28;20036;-51
2023/10/10 12:41:20;;;;;;;34.50;8.07;;;21.00;89.20;;;;;;5064241;28;20033;-53
2023/10/10 12:43:48;;;;;;;46.67;8.45;;;21.00;88.80;;;;;;5079682;28;21237;-53
2023/10/10 12:46:20;;;;;;;41.05;8.05;;;21.10;88.70;;;;;;5082430;28;20036;-52
2023/10/10 12:48:46;;;;;;;48.55;8.48;;;21.10;88.50;;;;;;5065195;28;20029;-53
2023/10/10 12:51:12;;;;;;;32.13;7.40;;;21.10;88.20;;;;;;5083536;28;20052;-53
2023/10/10 12:53:42;;;;;;;30.20;7.57;;;21.20;88.20;;;;;;5073639;28;20141;-53
2023/10/10 12:56:16;;;;;;;33.67;8.43;;;21.20;88.10;;;;;;5081700;28;20024;-51
2023/10/10 12:58:51;;;;;;;41.38;8.20;;;21.20;88.10;;;;;;5066410;28;20025;-51
2023/10/10 13:01:23;;;;;;;33.85;7.90;;;21.30;88.00;;;;;;5086191;28;20092;-51
2023/10/10 13:03:48;;;;;;;39.67;7.72;;;21.30;88.00;;;;;;5064252;28;20504;-51
2023/10/10 13:06:14;;;;;;;43.78;8.82;;;21.30;87.70;;;;;;5064648;28;20025;-51
2023/10/10 13:11:20;;;;;;;42.60;9.50;;;21.40;87.60;;;;;;5057994;28;20101;-51
2023/10/10 13:13:48;;;;;;;47.78;9.38;;;21.40;87.60;;;;;;5061636;28;20029;-51
2023/10/10 13:16:25;;;;;;;42.78;8.77;;;21.40;87.30;;;;;;5061380;28;20401;-51
2023/10/10 13:18:51;;;;;;;50.15;9.23;;;21.50;87.20;;;;;;5074674;28;20031;-51
2023/10/10 13:21:19;;;;;;;47.85;9.27;;;21.50;87.00;;;;;;5059300;28;20579;-51
2023/10/10 13:23:46;;;;;;;42.33;8.85;;;21.50;87.00;;;;;;5041768;28;20082;-51
2023/10/10 13:26:12;;;;;;;64.60;10.65;;;21.50;87.10;;;;;;5060177;28;20041;-51
2023/10/10 13:28:44;;;;;;;62.00;11.75;;;21.60;87.20;;;;;;5058608;28;20120;-51
2023/10/10 13:31:13;;;;;;;94.43;14.57;;;21.60;87.10;;;;;;5044043;28;20025;-51
2023/10/10 13:33:39;;;;;;;110.78;16.23;;;21.60;87.00;;;;;;5061301;28;20040;-51
2023/10/10 13:36:05;;;;;;;73.57;14.75;;;21.70;86.90;;;;;;5061853;28;20096;-51
2023/10/10 13:38:31;;;;;;;103.32;16.90;;;21.70;87.00;;;;;;5044681;28;20120;-51
2023/10/10 13:41:01;;;;;;;86.50;15.95;;;21.70;86.90;;;;;;5059787;28;20064;-52
2023/10/10 13:43:27;;;;;;;114.28;17.98;;;21.80;87.00;;;;;;5059467;28;20092;-51
2023/10/10 13:45:56;;;;;;;128.77;17.88;;;21.80;87.20;;;;;;5066137;28;20044;-50
2023/10/10 13:48:24;;;;;;;121.03;18.27;;;21.80;87.10;;;;;;5040247;28;20030;-51
2023/10/10 13:50:55;;;;;;;108.05;16.25;;;21.90;87.10;;;;;;5056364;28;20036;-51
2023/10/10 13:53:21;;;;;;;134.95;18.88;;;21.90;87.20;;;;;;5063341;28;20130;-51
2023/10/10 13:55:47;;;;;;;95.60;17.17;;;21.90;87.10;;;;;;5063409;28;20037;-51
2023/10/10 13:58:13;;;;;;;117.63;17.83;;;21.90;87.20;;;;;;5048099;28;20040;-51
2023/10/10 14:00:43;;;;;;;109.22;16.95;;;22.00;87.30;;;;;;5066194;28;20526;-51
2023/10/10 14:03:09;;;;;;;136.75;20.00;;;22.00;87.10;;;;;;5064827;28;20040;-51
2023/10/10 14:05:41;;;;;;;156.32;20.77;;;22.10;87.30;;;;;;5061342;28;20025;-51
2023/10/10 14:08:07;;;;;;;120.57;19.08;;;22.10;87.20;;;;;;5047683;28;20026;-51
2023/10/10 14:10:37;;;;;;;121.55;18.40;;;22.10;87.30;;;;;;5066257;28;20029;-51
2023/10/10 14:13:18;;;;;;;141.13;18.60;;;22.20;86.80;;;;;;5063515;28;20032;-51
2023/10/10 14:16:01;;;;;;;110.78;17.92;;;22.20;87.30;;;;;;5064677;28;20131;-53
2023/10/10 14:18:42;;;;;;;139.73;19.02;;;22.30;86.70;;;;;;5063669;28;20115;-51
2023/10/10 14:21:09;;;;;;;145.98;21.30;;;22.30;86.90;;;;;;5063420;28;20087;-51
2023/10/10 14:24:20;;;;;;;132.05;19.38;;;22.40;87.20;;;;;;5030437;28;20115;-51
2023/10/10 14:26:26;;;;;;;130.63;17.25;;;22.40;87.00;;;;;;5047574;28;20041;-51
2023/10/10 14:28:52;;;;;;;107.78;17.88;;;22.40;87.00;;;;;;5063807;28;20098;-51
2023/10/10 14:31:31;;;;;;;121.97;17.80;;;22.40;87.20;;;;;;5064040;28;20119;-51
2023/10/10 14:33:59;;;;;;;126.78;17.65;;;22.50;87.30;;;;;;5046008;28;20112;-51
2023/10/10 14:36:26;;;;;;;129.93;19.70;;;22.50;87.00;;;;;;5044345;28;20040;-51
2023/10/10 14:38:52;;;;;;;137.15;19.98;;;22.50;87.20;;;;;;5065342;28;20021;-51
2023/10/10 14:41:22;;;;;;;128.77;20.33;;;22.60;87.20;;;;;;5067097;28;20037;-51
2023/10/10 14:43:54;;;;;;;142.55;21.02;;;22.60;87.30;;;;;;5066545;28;20017;-51
2023/10/10 14:46:31;;;;;;;144.80;20.05;;;22.70;88.10;;;;;;5065317;28;20056;-51
2023/10/10 14:49:00;;;;;;;147.77;20.83;;;22.70;87.30;;;;;;5047368;28;20485;-52
2023/10/10 14:51:33;;;;;;;179.10;24.10;;;22.70;87.20;;;;;;5049477;28;20159;-51
2023/10/10 14:54:05;;;;;;;171.82;22.40;;;22.70;88.10;;;;;;5055295;28;20059;-53
2023/10/10 14:56:35;;;;;;;142.68;20.88;;;22.70;87.20;;;;;;5064921;28;20036;-51
2023/10/10 14:59:03;;;;;;;164.63;22.42;;;22.80;87.20;;;;;;5065402;28;20063;-51
2023/10/10 15:01:34;;;;;;;165.95;24.17;;;22.80;87.30;;;;;;5060095;28;20037;-50
2023/10/10 15:04:02;;;;;;;168.25;23.02;;;22.80;87.30;;;;;;5049746;28;20025;-51
2023/10/10 15:06:28;;;;;;;178.50;21.88;;;22.80;87.40;;;;;;5058110;28;20081;-51
2023/10/10 15:08:55;;;;;;;157.73;22.80;;;22.80;87.60;;;;;;5030089;28;20056;-51
2023/10/10 15:11:21;;;;;;;161.38;23.15;;;22.80;87.70;;;;;;5061234;28;20057;-51
2023/10/10 15:13:47;;;;;;;166.95;22.88;;;22.80;87.70;;;;;;5074940;28;20076;-51
2023/10/10 15:16:12;;;;;;;177.75;24.83;;;22.80;87.80;;;;;;5050173;28;20040;-51
2023/10/10 15:18:38;;;;;;;153.63;22.90;;;22.90;87.80;;;;;;5049115;28;20021;-51
2023/10/10 15:21:04;;;;;;;172.77;23.63;;;22.90;87.70;;;;;;5065621;28;20046;-51